createdAt,value
2022-10-05T00:09:37.970Z,99350.54
2022-10-05T00:19:46.687Z,99340.85
2022-10-05T00:29:58.996Z,99327.55
2022-10-05T00:40:13.646Z,99307.13
2022-10-05T00:50:29.457Z,99296.43
2022-10-05T01:00:38.013Z,99294.27
2022-10-05T01:10:53.234Z,99293.84
2022-10-05T01:20:58.642Z,99303.55
2022-10-05T01:31:14.653Z,99279.82
2022-10-05T01:41:23.581Z,99273.48
2022-10-05T01:51:28.342Z,99249.15
2022-10-05T02:01:33.458Z,99257.48
2022-10-05T02:11:45.404Z,99264.46
2022-10-05T02:21:57.743Z,99269.34
2022-10-05T02:32:09.099Z,99278.29
2022-10-05T02:42:13.852Z,99275.54
2022-10-05T02:52:23.119Z,99293.73
2022-10-05T03:02:34.802Z,99305.06
2022-10-05T03:12:51.433Z,99281.45
2022-10-05T03:23:01.980Z,99264.77
2022-10-05T03:33:16.006Z,99231.29
2022-10-05T03:43:33.716Z,99215.58
2022-10-05T03:53:43.723Z,99228.70
2022-10-05T04:03:51.381Z,99250.22
2022-10-05T04:14:00.699Z,99211.92
2022-10-05T04:24:14.718Z,99206.40
2022-10-05T04:34:22.919Z,99203.19
2022-10-05T04:44:34.780Z,99215.12
2022-10-05T04:54:43.789Z,99233.45
2022-10-05T05:05:10.219Z,99224.63
2022-10-05T05:15:19.433Z,99222.55
2022-10-05T05:25:29.158Z,99222.30
2022-10-05T05:36:09.343Z,99217.58
2022-10-05T05:46:18.166Z,99228.94
2022-10-05T05:56:33.182Z,99244.59
2022-10-05T06:06:44.160Z,99234.34
2022-10-05T06:16:55.692Z,99244.55
2022-10-05T06:27:21.045Z,99236.92
2022-10-05T06:37:29.001Z,99218.74
2022-10-05T06:47:35.116Z,99200.23
2022-10-05T06:57:44.664Z,99213.48
2022-10-05T07:07:56.566Z,99217.98
2022-10-05T07:18:05.289Z,99226.26
2022-10-05T07:28:14.840Z,99234.95
2022-10-05T07:38:19.912Z,99242.80
2022-10-05T07:48:33.321Z,99241.35
2022-10-05T07:58:44.605Z,99250.33
2022-10-05T08:08:54.714Z,99257.02
2022-10-05T08:19:06.775Z,99247.92
2022-10-05T08:29:16.873Z,99243.86
2022-10-05T08:39:22.874Z,99243.91
2022-10-05T08:50:04.608Z,99235.71
2022-10-05T09:00:13.816Z,99234.41
2022-10-05T09:10:47.907Z,99234.20
2022-10-05T09:20:56.814Z,99235.06
2022-10-05T09:31:17.270Z,99241.90
2022-10-05T09:41:53.306Z,99240.09
2022-10-05T09:52:17.932Z,99241.10
2022-10-05T10:02:29.045Z,99238.38
2022-10-05T10:12:51.518Z,99242.16
2022-10-05T10:23:16.534Z,99244.88
2022-10-05T10:33:37.518Z,99244.51
2022-10-05T10:44:11.503Z,99229.80
2022-10-05T10:54:42.957Z,99224.89
2022-10-05T11:05:02.246Z,99228.16
2022-10-05T11:25:51.311Z,99222.19
2022-10-05T11:36:33.468Z,99208.67
2022-10-05T11:46:39.970Z,99210.48
2022-10-05T11:56:49.502Z,99197.26
2022-10-05T12:07:05.394Z,99180.26
2022-10-05T12:17:12.676Z,99177.02
2022-10-05T12:27:21.734Z,99173.64
2022-10-05T12:37:39.061Z,99175.79
2022-10-05T12:47:49.306Z,99179.14
2022-10-05T12:58:01.687Z,99174.25
2022-10-05T13:08:18.228Z,99159.33
2022-10-05T13:18:30.104Z,99152.84
2022-10-05T13:28:40.264Z,99142.33
2022-10-05T13:38:48.482Z,99143.10
2022-10-05T13:48:58.501Z,99142.61
2022-10-05T13:59:12.207Z,99135.42
2022-10-05T14:09:35.104Z,99132.94
2022-10-05T14:19:45.500Z,99128.16
2022-10-05T14:29:55.805Z,99120.27
2022-10-05T14:40:04.204Z,99112.53
2022-10-05T14:50:17.989Z,99115.27
2022-10-05T15:00:24.524Z,99101.70
2022-10-05T15:10:29.942Z,99095.68
2022-10-05T15:20:35.817Z,99093.21
2022-10-05T15:30:47.057Z,99077.52
2022-10-05T15:40:52.967Z,99076.86
2022-10-05T15:51:00.895Z,99075.79
2022-10-05T16:01:13.147Z,99070.66
2022-10-05T16:11:22.735Z,99050.22
2022-10-05T16:21:29.484Z,99047.60
2022-10-05T16:31:34.970Z,99048.41
2022-10-05T16:41:42.711Z,99047.69
2022-10-05T16:51:50.762Z,99051.66
2022-10-05T17:01:56.422Z,99058.57
2022-10-05T17:12:13.087Z,99063.22
2022-10-05T17:22:22.821Z,99056.52
2022-10-05T17:32:36.428Z,99052.46
2022-10-05T17:42:47.494Z,99040.27
2022-10-05T17:53:12.455Z,99047.45
2022-10-05T18:03:36.888Z,99050.55
2022-10-05T18:13:44.150Z,99043.13
2022-10-05T18:24:01.524Z,99049.56
2022-10-05T18:34:18.113Z,99043.55
2022-10-05T18:44:31.257Z,99046.85
2022-10-05T18:54:40.708Z,99048.46
2022-10-05T19:04:50.679Z,99049.63
2022-10-05T19:14:55.659Z,99046.90
2022-10-05T19:25:16.274Z,99039.17
2022-10-05T19:35:22.566Z,99029.46
2022-10-05T19:55:36.764Z,99025.64
2022-10-05T20:05:44.253Z,99024.82
2022-10-05T20:16:40.153Z,99030.59
2022-10-05T20:27:03.975Z,99039.50
2022-10-05T20:37:11.637Z,99049.46
2022-10-05T20:47:19.236Z,99051.00
2022-10-05T20:57:26.858Z,99050.84
2022-10-05T21:07:35.457Z,99049.10
2022-10-05T21:17:41.363Z,99061.85
2022-10-05T21:27:47.596Z,99064.32
2022-10-05T21:37:55.034Z,99070.30
2022-10-05T21:48:02.417Z,99076.23
2022-10-05T21:58:10.017Z,99086.94
2022-10-05T22:08:20.263Z,99096.15
2022-10-05T22:18:27.697Z,99102.64
2022-10-05T22:28:35.939Z,99102.61
2022-10-05T22:38:43.150Z,99100.50
2022-10-05T22:48:50.194Z,99105.58
2022-10-05T22:58:57.361Z,99120.30
2022-10-05T23:09:04.541Z,99129.30
2022-10-05T23:19:11.571Z,99136.68
2022-10-05T23:29:18.736Z,99151.44
2022-10-05T23:39:25.849Z,99162.91
2022-10-05T23:49:32.922Z,99165.52
2022-10-05T23:59:40.314Z,99180.67
